Aérodrome :
LOGIN :

S'inscrire | Disclaimer

   EN    FR    IT 

 










Légende :    VFR   VFR Marginal   IFR   IFR Intensif   IFR Très Intensif
Visi : 
Plafond : 
>= 8 km
>= 3000ft
5 à 8 km
1000 à 3000 ft
1500m à 5 km
500 à 1000 ft
800 à 1500m
200 à 500 ft
< 800m
< 200 ft
Symboles :   Orages  Brouillard  Fortes neiges  Fortes précipitations  Vent > 20 kt
SIGMETs :   Divers  Orages  Givrage  Turbulence  Onde Orograph.  Cendres Volcan.






- Altitude de l'aérodrome : 339 ft
- Code IATA : UTI


EFUT - Utti Air Base

DERNIER METAR :
  • 301120Z 13007KT 9999 -PL BKN003 BKN020 00/M00 Q1018

METARs EXPIRÉS :
  • 301050Z 12008KT 8000 -SGDZ BKN003 BKN013 00/M00 Q1018 REFZDZ
  • 301020Z 11009KT 3000 -FZDZSG -SN OVC003 M00/M00 Q1018
  • 300950Z 11008KT 8000 -FZDZSG OVC003 M00/M01 Q1019
  • 300920Z 10008KT 4000 -PL OVC003 M00/M01 Q1019
  • 300850Z 10008KT 7000 -SG OVC003 M01/M01 Q1019

TAF TAF EFUT
Valide du 30 à 09h jusqu'au 30 à 14h UTC


300826Z 3009/3014 10007KT 9999 -SG OVC005
TEMPO 3009/3014 5000 -RASN OVC003
PROB30 3009/3012 3000 -FZDZSN



MET'MAP, la Météo Aéronautique d'un coup d'oeil ! - Copyright ORBIFLY Décembre 2007 - Disclaimer

ORBIFLY MET'MAP TEAM :

Programmation & Développement : Alexandra Zaïnal
Sur une idée originale de : Baudouin d'Aumeries
Assistance à la programmation : Marc-Olivier Méhu
Soutien technique & logistique : Manuel Goepfert

Contact : metmap@orbifly.com




SOURCES & CREDITS :

   NOAA